sensor_id;sensor_type;location;lat;lon;timestamp;P1;durP1;ratioP1;P2;durP2;ratioP2
50165;SDS011;36071;48.140;11.516;2023-05-23T00:04:00;11.6;;;9.0;;
50165;SDS011;36071;48.140;11.516;2023-05-23T00:09:00;13.5;;;9.5;;
50165;SDS011;36071;48.140;11.516;2023-05-23T00:14:00;11.2;;;9.3;;
50165;SDS011;36071;48.140;11.516;2023-05-23T00:19:00;13.9;;;9.2;;
50165;SDS011;36071;48.140;11.516;2023-05-23T00:24:00;12.1;;;9.1;;
50165;SDS011;36071;48.140;11.516;2023-05-23T00:29:00;12.4;;;9.3;;
50165;SDS011;36071;48.140;11.516;2023-05-23T00:34:00;12.4;;;9.5;;
50165;SDS011;36071;48.140;11.516;2023-05-23T00:39:00;12.4;;;9.3;;
50165;SDS011;36071;48.140;11.516;2023-05-23T00:44:00;11.7;;;8.9;;
50165;SDS011;36071;48.140;11.516;2023-05-23T00:49:00;12.3;;;8.7;;
50165;SDS011;36071;48.140;11.516;2023-05-23T00:54:00;10.9;;;9.0;;
50165;SDS011;36071;48.140;11.516;2023-05-23T00:59:00;11.8;;;9.0;;
50165;SDS011;36071;48.140;11.516;2023-05-23T01:04:00;12.3;;;9.0;;
50165;SDS011;36071;48.140;11.516;2023-05-23T01:09:00;14.9;;;9.6;;
50165;SDS011;36071;48.140;11.516;2023-05-23T01:14:12;12.9;;;9.3;;
50165;SDS011;36071;48.140;11.516;2023-05-23T01:19:03;12.0;;;9.2;;
50165;SDS011;36071;48.140;11.516;2023-05-23T01:24:03;12.5;;;9.1;;
50165;SDS011;36071;48.140;11.516;2023-05-23T01:29:01;13.2;;;9.5;;
50165;SDS011;36071;48.140;11.516;2023-05-23T01:34:00;14.0;;;9.4;;
50165;SDS011;36071;48.140;11.516;2023-05-23T01:39:00;13.7;;;9.1;;
50165;SDS011;36071;48.140;11.516;2023-05-23T01:44:00;12.8;;;9.5;;
50165;SDS011;36071;48.140;11.516;2023-05-23T01:49:01;12.1;;;9.6;;
50165;SDS011;36071;48.140;11.516;2023-05-23T01:54:00;14.8;;;10.1;;
50165;SDS011;36071;48.140;11.516;2023-05-23T01:59:00;12.5;;;10.2;;
50165;SDS011;36071;48.140;11.516;2023-05-23T02:04:00;14.8;;;9.8;;
50165;SDS011;36071;48.140;11.516;2023-05-23T02:09:00;14.4;;;10.4;;
50165;SDS011;36071;48.140;11.516;2023-05-23T02:14:00;12.9;;;10.2;;
50165;SDS011;36071;48.140;11.516;2023-05-23T02:19:00;14.4;;;10.3;;
50165;SDS011;36071;48.140;11.516;2023-05-23T02:24:00;15.4;;;10.6;;
50165;SDS011;36071;48.140;11.516;2023-05-23T02:29:00;13.8;;;10.5;;
50165;SDS011;36071;48.140;11.516;2023-05-23T02:34:00;14.4;;;10.9;;
50165;SDS011;36071;48.140;11.516;2023-05-23T02:39:02;13.7;;;10.4;;
50165;SDS011;36071;48.140;11.516;2023-05-23T02:44:00;15.0;;;10.4;;
50165;SDS011;36071;48.140;11.516;2023-05-23T02:49:00;14.7;;;11.2;;
50165;SDS011;36071;48.140;11.516;2023-05-23T02:54:00;14.9;;;10.8;;
50165;SDS011;36071;48.140;11.516;2023-05-23T02:59:00;14.1;;;11.4;;
50165;SDS011;36071;48.140;11.516;2023-05-23T03:04:00;14.8;;;11.4;;
50165;SDS011;36071;48.140;11.516;2023-05-23T03:09:00;16.6;;;12.2;;
50165;SDS011;36071;48.140;11.516;2023-05-23T03:14:00;14.7;;;12.0;;
50165;SDS011;36071;48.140;11.516;2023-05-23T03:19:00;17.4;;;12.9;;
50165;SDS011;36071;48.140;11.516;2023-05-23T03:24:00;16.1;;;12.5;;
50165;SDS011;36071;48.140;11.516;2023-05-23T03:29:00;16.5;;;13.0;;
50165;SDS011;36071;48.140;11.516;2023-05-23T03:34:00;75.4;;;43.5;;
50165;SDS011;36071;48.140;11.516;2023-05-23T03:39:00;17.7;;;13.5;;
50165;SDS011;36071;48.140;11.516;2023-05-23T03:44:00;21.2;;;14.6;;
50165;SDS011;36071;48.140;11.516;2023-05-23T03:49:00;19.1;;;13.4;;
50165;SDS011;36071;48.140;11.516;2023-05-23T03:54:00;18.0;;;13.2;;
50165;SDS011;36071;48.140;11.516;2023-05-23T03:59:00;20.3;;;14.5;;
50165;SDS011;36071;48.140;11.516;2023-05-23T04:04:00;18.9;;;14.3;;
50165;SDS011;36071;48.140;11.516;2023-05-23T04:09:00;17.7;;;14.0;;
50165;SDS011;36071;48.140;11.516;2023-05-23T04:14:00;19.9;;;15.1;;
50165;SDS011;36071;48.140;11.516;2023-05-23T04:19:00;19.8;;;14.3;;
50165;SDS011;36071;48.140;11.516;2023-05-23T04:24:00;17.6;;;14.4;;
50165;SDS011;36071;48.140;11.516;2023-05-23T04:29:00;18.6;;;14.2;;
50165;SDS011;36071;48.140;11.516;2023-05-23T04:34:00;22.1;;;15.2;;
50165;SDS011;36071;48.140;11.516;2023-05-23T04:39:00;21.0;;;15.5;;
50165;SDS011;36071;48.140;11.516;2023-05-23T04:44:00;22.6;;;15.4;;
50165;SDS011;36071;48.140;11.516;2023-05-23T04:49:00;22.9;;;16.5;;
50165;SDS011;36071;48.140;11.516;2023-05-23T04:54:00;22.8;;;16.1;;
50165;SDS011;36071;48.140;11.516;2023-05-23T04:59:00;21.9;;;16.8;;
50165;SDS011;36071;48.140;11.516;2023-05-23T05:04:00;21.4;;;16.8;;
50165;SDS011;36071;48.140;11.516;2023-05-23T05:09:00;26.0;;;17.4;;
50165;SDS011;36071;48.140;11.516;2023-05-23T05:14:00;22.6;;;17.1;;
50165;SDS011;36071;48.140;11.516;2023-05-23T05:19:00;24.8;;;16.7;;
50165;SDS011;36071;48.140;11.516;2023-05-23T05:24:00;22.1;;;16.0;;
50165;SDS011;36071;48.140;11.516;2023-05-23T05:29:00;19.7;;;16.2;;
50165;SDS011;36071;48.140;11.516;2023-05-23T05:34:00;25.0;;;17.4;;
50165;SDS011;36071;48.140;11.516;2023-05-23T05:39:00;23.9;;;17.1;;
50165;SDS011;36071;48.140;11.516;2023-05-23T05:44:00;24.3;;;17.2;;
50165;SDS011;36071;48.140;11.516;2023-05-23T05:49:00;21.2;;;15.6;;
50165;SDS011;36071;48.140;11.516;2023-05-23T05:54:00;25.9;;;17.4;;
50165;SDS011;36071;48.140;11.516;2023-05-23T05:59:00;27.3;;;16.4;;
50165;SDS011;36071;48.140;11.516;2023-05-23T06:04:00;26.9;;;18.4;;
50165;SDS011;36071;48.140;11.516;2023-05-23T06:09:00;26.2;;;18.1;;
50165;SDS011;36071;48.140;11.516;2023-05-23T06:14:00;25.9;;;18.9;;
50165;SDS011;36071;48.140;11.516;2023-05-23T06:19:01;26.7;;;18.2;;
50165;SDS011;36071;48.140;11.516;2023-05-23T06:24:00;25.9;;;18.2;;
50165;SDS011;36071;48.140;11.516;2023-05-23T06:29:00;28.1;;;19.4;;
50165;SDS011;36071;48.140;11.516;2023-05-23T06:34:00;29.3;;;19.4;;
50165;SDS011;36071;48.140;11.516;2023-05-23T06:39:00;26.6;;;19.5;;
50165;SDS011;36071;48.140;11.516;2023-05-23T06:44:00;30.5;;;18.7;;
50165;SDS011;36071;48.140;11.516;2023-05-23T06:49:02;28.0;;;19.6;;
50165;SDS011;36071;48.140;11.516;2023-05-23T06:54:00;27.4;;;19.3;;
50165;SDS011;36071;48.140;11.516;2023-05-23T06:59:00;25.9;;;20.1;;
50165;SDS011;36071;48.140;11.516;2023-05-23T07:04:00;30.3;;;20.2;;
50165;SDS011;36071;48.140;11.516;2023-05-23T07:09:00;29.9;;;20.2;;
50165;SDS011;36071;48.140;11.516;2023-05-23T07:14:07;30.6;;;21.3;;
50165;SDS011;36071;48.140;11.516;2023-05-23T07:19:00;30.3;;;21.0;;
50165;SDS011;36071;48.140;11.516;2023-05-23T07:29:00;31.1;;;20.4;;
50165;SDS011;36071;48.140;11.516;2023-05-23T07:34:02;29.0;;;21.8;;
50165;SDS011;36071;48.140;11.516;2023-05-23T07:39:00;30.7;;;21.7;;
50165;SDS011;36071;48.140;11.516;2023-05-23T07:44:00;46.5;;;30.1;;
50165;SDS011;36071;48.140;11.516;2023-05-23T07:49:00;34.6;;;24.4;;
50165;SDS011;36071;48.140;11.516;2023-05-23T07:54:00;30.7;;;21.7;;
50165;SDS011;36071;48.140;11.516;2023-05-23T07:59:01;32.8;;;21.9;;
50165;SDS011;36071;48.140;11.516;2023-05-23T08:04:00;30.3;;;21.5;;
50165;SDS011;36071;48.140;11.516;2023-05-23T08:09:00;30.1;;;22.2;;
50165;SDS011;36071;48.140;11.516;2023-05-23T08:14:02;33.6;;;23.7;;
50165;SDS011;36071;48.140;11.516;2023-05-23T08:19:00;31.2;;;22.1;;
50165;SDS011;36071;48.140;11.516;2023-05-23T08:24:00;29.5;;;21.2;;
50165;SDS011;36071;48.140;11.516;2023-05-23T08:29:00;30.5;;;21.7;;
50165;SDS011;36071;48.140;11.516;2023-05-23T08:34:02;31.9;;;22.9;;
50165;SDS011;36071;48.140;11.516;2023-05-23T08:39:00;32.1;;;22.7;;
50165;SDS011;36071;48.140;11.516;2023-05-23T08:44:01;31.9;;;22.9;;
50165;SDS011;36071;48.140;11.516;2023-05-23T08:49:00;30.8;;;21.3;;
50165;SDS011;36071;48.140;11.516;2023-05-23T08:54:00;30.8;;;22.0;;
50165;SDS011;36071;48.140;11.516;2023-05-23T08:59:00;29.2;;;21.6;;
50165;SDS011;36071;48.140;11.516;2023-05-23T09:04:00;29.4;;;20.7;;
50165;SDS011;36071;48.140;11.516;2023-05-23T09:09:00;26.5;;;20.9;;
50165;SDS011;36071;48.140;11.516;2023-05-23T09:14:00;29.4;;;21.2;;
50165;SDS011;36071;48.140;11.516;2023-05-23T09:19:08;42.6;;;31.8;;
50165;SDS011;36071;48.140;11.516;2023-05-23T09:24:00;28.4;;;22.2;;
50165;SDS011;36071;48.140;11.516;2023-05-23T09:29:03;30.4;;;22.1;;
50165;SDS011;36071;48.140;11.516;2023-05-23T09:34:00;31.2;;;22.1;;
50165;SDS011;36071;48.140;11.516;2023-05-23T09:39:01;33.3;;;23.3;;
50165;SDS011;36071;48.140;11.516;2023-05-23T09:44:04;36.4;;;24.0;;
50165;SDS011;36071;48.140;11.516;2023-05-23T09:49:00;35.0;;;24.4;;
50165;SDS011;36071;48.140;11.516;2023-05-23T09:54:00;33.1;;;23.7;;
50165;SDS011;36071;48.140;11.516;2023-05-23T09:59:01;34.1;;;23.3;;
50165;SDS011;36071;48.140;11.516;2023-05-23T10:04:00;35.3;;;24.1;;
50165;SDS011;36071;48.140;11.516;2023-05-23T10:09:01;39.8;;;25.9;;
50165;SDS011;36071;48.140;11.516;2023-05-23T10:14:01;31.6;;;22.9;;
50165;SDS011;36071;48.140;11.516;2023-05-23T10:19:02;35.3;;;24.3;;
50165;SDS011;36071;48.140;11.516;2023-05-23T10:24:01;35.4;;;24.7;;
50165;SDS011;36071;48.140;11.516;2023-05-23T10:29:00;35.5;;;25.0;;
50165;SDS011;36071;48.140;11.516;2023-05-23T10:34:01;34.3;;;22.9;;
50165;SDS011;36071;48.140;11.516;2023-05-23T10:39:03;28.9;;;21.7;;
50165;SDS011;36071;48.140;11.516;2023-05-23T10:44:03;31.9;;;22.8;;
50165;SDS011;36071;48.140;11.516;2023-05-23T10:49:00;25.7;;;20.4;;
50165;SDS011;36071;48.140;11.516;2023-05-23T10:54:00;29.1;;;20.8;;
50165;SDS011;36071;48.140;11.516;2023-05-23T10:59:00;27.6;;;18.9;;
50165;SDS011;36071;48.140;11.516;2023-05-23T11:04:03;24.8;;;18.1;;
50165;SDS011;36071;48.140;11.516;2023-05-23T11:09:01;24.7;;;18.9;;
50165;SDS011;36071;48.140;11.516;2023-05-23T11:14:00;23.6;;;17.2;;
50165;SDS011;36071;48.140;11.516;2023-05-23T11:19:19;21.3;;;16.7;;
50165;SDS011;36071;48.140;11.516;2023-05-23T11:24:00;21.6;;;15.8;;
50165;SDS011;36071;48.140;11.516;2023-05-23T11:29:00;19.4;;;15.6;;
50165;SDS011;36071;48.140;11.516;2023-05-23T11:34:00;19.6;;;15.5;;
50165;SDS011;36071;48.140;11.516;2023-05-23T11:39:00;17.1;;;14.2;;
50165;SDS011;36071;48.140;11.516;2023-05-23T11:44:00;20.0;;;15.2;;
50165;SDS011;36071;48.140;11.516;2023-05-23T11:49:00;20.3;;;15.6;;
50165;SDS011;36071;48.140;11.516;2023-05-23T11:54:00;20.8;;;15.2;;
50165;SDS011;36071;48.140;11.516;2023-05-23T11:59:00;21.8;;;15.6;;
50165;SDS011;36071;48.140;11.516;2023-05-23T12:04:00;18.4;;;14.4;;
50165;SDS011;36071;48.140;11.516;2023-05-23T12:09:00;18.0;;;14.2;;
50165;SDS011;36071;48.140;11.516;2023-05-23T12:14:00;18.2;;;14.4;;
50165;SDS011;36071;48.140;11.516;2023-05-23T12:19:03;18.0;;;13.4;;
50165;SDS011;36071;48.140;11.516;2023-05-23T12:24:09;20.7;;;14.8;;
50165;SDS011;36071;48.140;11.516;2023-05-23T12:29:00;16.4;;;12.8;;
50165;SDS011;36071;48.140;11.516;2023-05-23T12:44:01;21.0;;;15.4;;
50165;SDS011;36071;48.140;11.516;2023-05-23T12:49:00;18.7;;;14.2;;
50165;SDS011;36071;48.140;11.516;2023-05-23T12:54:00;17.1;;;13.6;;
50165;SDS011;36071;48.140;11.516;2023-05-23T12:59:01;19.4;;;14.1;;
50165;SDS011;36071;48.140;11.516;2023-05-23T13:04:00;14.9;;;11.8;;
50165;SDS011;36071;48.140;11.516;2023-05-23T13:09:00;13.3;;;10.4;;
50165;SDS011;36071;48.140;11.516;2023-05-23T13:14:00;17.4;;;12.0;;
50165;SDS011;36071;48.140;11.516;2023-05-23T13:19:01;15.5;;;11.5;;
50165;SDS011;36071;48.140;11.516;2023-05-23T13:24:00;13.6;;;11.6;;
50165;SDS011;36071;48.140;11.516;2023-05-23T13:29:00;16.3;;;12.5;;
50165;SDS011;36071;48.140;11.516;2023-05-23T13:34:00;14.5;;;11.1;;
50165;SDS011;36071;48.140;11.516;2023-05-23T13:39:02;16.5;;;11.4;;
50165;SDS011;36071;48.140;11.516;2023-05-23T13:44:00;15.5;;;12.3;;
50165;SDS011;36071;48.140;11.516;2023-05-23T13:49:00;14.8;;;11.1;;
50165;SDS011;36071;48.140;11.516;2023-05-23T13:54:00;16.3;;;11.6;;
50165;SDS011;36071;48.140;11.516;2023-05-23T13:59:00;14.8;;;11.3;;
50165;SDS011;36071;48.140;11.516;2023-05-23T14:04:00;18.0;;;11.2;;
50165;SDS011;36071;48.140;11.516;2023-05-23T14:09:00;18.4;;;13.2;;
50165;SDS011;36071;48.140;11.516;2023-05-23T14:14:00;22.3;;;15.1;;
50165;SDS011;36071;48.140;11.516;2023-05-23T14:19:00;15.0;;;11.2;;
50165;SDS011;36071;48.140;11.516;2023-05-23T14:24:01;13.9;;;10.6;;
50165;SDS011;36071;48.140;11.516;2023-05-23T14:29:00;24.4;;;18.5;;
50165;SDS011;36071;48.140;11.516;2023-05-23T14:34:00;34.0;;;23.4;;
50165;SDS011;36071;48.140;11.516;2023-05-23T14:39:00;20.0;;;14.2;;
50165;SDS011;36071;48.140;11.516;2023-05-23T14:44:01;14.0;;;11.2;;
50165;SDS011;36071;48.140;11.516;2023-05-23T14:49:00;15.8;;;10.1;;
50165;SDS011;36071;48.140;11.516;2023-05-23T14:54:00;17.7;;;13.6;;
50165;SDS011;36071;48.140;11.516;2023-05-23T14:59:00;32.6;;;21.6;;
50165;SDS011;36071;48.140;11.516;2023-05-23T15:04:01;13.3;;;9.6;;
50165;SDS011;36071;48.140;11.516;2023-05-23T15:09:00;16.3;;;10.9;;
50165;SDS011;36071;48.140;11.516;2023-05-23T15:14:00;21.1;;;13.0;;
50165;SDS011;36071;48.140;11.516;2023-05-23T15:19:00;21.8;;;11.4;;
50165;SDS011;36071;48.140;11.516;2023-05-23T15:24:01;13.3;;;10.2;;
50165;SDS011;36071;48.140;11.516;2023-05-23T15:29:00;14.6;;;10.3;;
50165;SDS011;36071;48.140;11.516;2023-05-23T15:34:00;13.7;;;10.6;;
50165;SDS011;36071;48.140;11.516;2023-05-23T15:39:00;15.8;;;10.1;;
50165;SDS011;36071;48.140;11.516;2023-05-23T15:44:00;13.7;;;10.5;;
50165;SDS011;36071;48.140;11.516;2023-05-23T15:49:00;14.3;;;9.4;;
50165;SDS011;36071;48.140;11.516;2023-05-23T15:54:00;12.5;;;9.2;;
50165;SDS011;36071;48.140;11.516;2023-05-23T15:59:00;12.8;;;9.0;;
50165;SDS011;36071;48.140;11.516;2023-05-23T16:04:00;11.2;;;9.2;;
50165;SDS011;36071;48.140;11.516;2023-05-23T16:09:00;10.8;;;8.3;;
50165;SDS011;36071;48.140;11.516;2023-05-23T16:14:00;10.3;;;7.6;;
50165;SDS011;36071;48.140;11.516;2023-05-23T16:19:01;9.0;;;7.7;;
50165;SDS011;36071;48.140;11.516;2023-05-23T16:24:00;11.3;;;7.6;;
50165;SDS011;36071;48.140;11.516;2023-05-23T16:29:00;8.2;;;7.1;;
50165;SDS011;36071;48.140;11.516;2023-05-23T16:34:00;9.0;;;7.2;;
50165;SDS011;36071;48.140;11.516;2023-05-23T16:39:00;13.2;;;7.8;;
50165;SDS011;36071;48.140;11.516;2023-05-23T16:44:00;7.7;;;6.8;;
50165;SDS011;36071;48.140;11.516;2023-05-23T16:49:00;10.1;;;6.5;;
50165;SDS011;36071;48.140;11.516;2023-05-23T16:54:00;16.1;;;11.0;;
50165;SDS011;36071;48.140;11.516;2023-05-23T16:59:00;9.4;;;4.9;;
50165;SDS011;36071;48.140;11.516;2023-05-23T17:04:01;6.2;;;5.0;;
50165;SDS011;36071;48.140;11.516;2023-05-23T17:09:01;8.0;;;4.7;;
50165;SDS011;36071;48.140;11.516;2023-05-23T17:14:00;7.6;;;4.7;;
50165;SDS011;36071;48.140;11.516;2023-05-23T17:19:02;5.2;;;4.7;;
50165;SDS011;36071;48.140;11.516;2023-05-23T17:24:00;7.3;;;4.1;;
50165;SDS011;36071;48.140;11.516;2023-05-23T17:29:00;10.4;;;5.9;;
50165;SDS011;36071;48.140;11.516;2023-05-23T17:34:00;17.4;;;10.4;;
50165;SDS011;36071;48.140;11.516;2023-05-23T17:39:02;25.6;;;15.7;;
50165;SDS011;36071;48.140;11.516;2023-05-23T17:44:00;6.6;;;4.4;;
50165;SDS011;36071;48.140;11.516;2023-05-23T17:49:00;31.6;;;20.4;;
50165;SDS011;36071;48.140;11.516;2023-05-23T17:54:00;16.4;;;11.5;;
50165;SDS011;36071;48.140;11.516;2023-05-23T17:59:01;13.8;;;8.8;;
50165;SDS011;36071;48.140;11.516;2023-05-23T18:04:00;19.5;;;13.6;;
50165;SDS011;36071;48.140;11.516;2023-05-23T18:09:00;10.1;;;7.4;;
50165;SDS011;36071;48.140;11.516;2023-05-23T18:14:01;32.7;;;21.1;;
50165;SDS011;36071;48.140;11.516;2023-05-23T18:19:00;16.9;;;10.9;;
50165;SDS011;36071;48.140;11.516;2023-05-23T18:24:00;12.7;;;9.4;;
50165;SDS011;36071;48.140;11.516;2023-05-23T18:29:00;4.5;;;3.1;;
50165;SDS011;36071;48.140;11.516;2023-05-23T18:34:00;5.0;;;2.6;;
50165;SDS011;36071;48.140;11.516;2023-05-23T18:39:00;5.5;;;2.7;;
50165;SDS011;36071;48.140;11.516;2023-05-23T18:44:00;4.8;;;3.0;;
50165;SDS011;36071;48.140;11.516;2023-05-23T18:49:01;5.6;;;2.8;;
50165;SDS011;36071;48.140;11.516;2023-05-23T18:54:00;4.1;;;2.9;;
50165;SDS011;36071;48.140;11.516;2023-05-23T18:59:00;4.7;;;2.8;;
50165;SDS011;36071;48.140;11.516;2023-05-23T19:04:00;3.7;;;2.4;;
50165;SDS011;36071;48.140;11.516;2023-05-23T19:09:00;5.2;;;2.6;;
50165;SDS011;36071;48.140;11.516;2023-05-23T19:14:00;3.3;;;2.6;;
50165;SDS011;36071;48.140;11.516;2023-05-23T19:19:01;4.4;;;2.3;;
50165;SDS011;36071;48.140;11.516;2023-05-23T19:24:00;4.4;;;2.9;;
50165;SDS011;36071;48.140;11.516;2023-05-23T19:29:00;5.7;;;2.9;;
50165;SDS011;36071;48.140;11.516;2023-05-23T19:34:00;4.7;;;3.0;;
50165;SDS011;36071;48.140;11.516;2023-05-23T19:39:02;5.2;;;2.9;;
50165;SDS011;36071;48.140;11.516;2023-05-23T19:44:00;6.2;;;3.1;;
50165;SDS011;36071;48.140;11.516;2023-05-23T19:49:00;27.5;;;18.6;;
50165;SDS011;36071;48.140;11.516;2023-05-23T19:54:02;8.4;;;5.6;;
50165;SDS011;36071;48.140;11.516;2023-05-23T19:59:02;17.4;;;11.8;;
50165;SDS011;36071;48.140;11.516;2023-05-23T20:04:00;46.4;;;25.6;;
50165;SDS011;36071;48.140;11.516;2023-05-23T20:09:00;6.4;;;3.8;;
50165;SDS011;36071;48.140;11.516;2023-05-23T20:14:01;4.4;;;3.4;;
50165;SDS011;36071;48.140;11.516;2023-05-23T20:19:00;5.6;;;3.4;;
50165;SDS011;36071;48.140;11.516;2023-05-23T20:24:00;5.5;;;3.0;;
50165;SDS011;36071;48.140;11.516;2023-05-23T20:29:00;4.6;;;3.2;;
50165;SDS011;36071;48.140;11.516;2023-05-23T20:34:00;4.0;;;3.5;;
50165;SDS011;36071;48.140;11.516;2023-05-23T20:39:00;4.9;;;3.0;;
50165;SDS011;36071;48.140;11.516;2023-05-23T20:44:01;4.2;;;2.9;;
50165;SDS011;36071;48.140;11.516;2023-05-23T20:49:00;5.1;;;3.5;;
50165;SDS011;36071;48.140;11.516;2023-05-23T20:54:00;4.7;;;3.1;;
50165;SDS011;36071;48.140;11.516;2023-05-23T20:59:02;6.2;;;3.5;;
50165;SDS011;36071;48.140;11.516;2023-05-23T21:04:00;7.4;;;3.5;;
50165;SDS011;36071;48.140;11.516;2023-05-23T21:19:08;6.2;;;3.8;;
50165;SDS011;36071;48.140;11.516;2023-05-23T21:24:00;4.8;;;3.7;;
50165;SDS011;36071;48.140;11.516;2023-05-23T21:29:00;5.5;;;3.8;;
50165;SDS011;36071;48.140;11.516;2023-05-23T21:34:00;5.0;;;3.7;;
50165;SDS011;36071;48.140;11.516;2023-05-23T21:39:00;4.6;;;3.6;;
50165;SDS011;36071;48.140;11.516;2023-05-23T21:44:00;5.1;;;4.0;;
50165;SDS011;36071;48.140;11.516;2023-05-23T21:49:00;6.6;;;3.9;;
50165;SDS011;36071;48.140;11.516;2023-05-23T21:54:00;4.8;;;3.4;;
50165;SDS011;36071;48.140;11.516;2023-05-23T21:59:00;5.1;;;3.6;;
50165;SDS011;36071;48.140;11.516;2023-05-23T22:04:00;5.7;;;3.7;;
50165;SDS011;36071;48.140;11.516;2023-05-23T22:09:01;5.3;;;3.5;;
50165;SDS011;36071;48.140;11.516;2023-05-23T22:14:03;6.3;;;3.6;;
50165;SDS011;36071;48.140;11.516;2023-05-23T22:19:00;8.0;;;4.0;;
50165;SDS011;36071;48.140;11.516;2023-05-23T22:24:00;4.7;;;3.2;;
50165;SDS011;36071;48.140;11.516;2023-05-23T22:29:01;6.8;;;3.5;;
50165;SDS011;36071;48.140;11.516;2023-05-23T22:34:00;5.1;;;3.7;;
50165;SDS011;36071;48.140;11.516;2023-05-23T22:39:01;5.2;;;3.3;;
50165;SDS011;36071;48.140;11.516;2023-05-23T22:44:00;4.6;;;3.4;;
50165;SDS011;36071;48.140;11.516;2023-05-23T22:49:00;6.2;;;3.5;;
50165;SDS011;36071;48.140;11.516;2023-05-23T22:54:01;5.7;;;4.0;;
50165;SDS011;36071;48.140;11.516;2023-05-23T22:59:00;5.9;;;3.8;;
50165;SDS011;36071;48.140;11.516;2023-05-23T23:04:00;4.9;;;3.5;;
50165;SDS011;36071;48.140;11.516;2023-05-23T23:09:01;5.8;;;3.3;;
50165;SDS011;36071;48.140;11.516;2023-05-23T23:14:01;4.9;;;3.6;;
50165;SDS011;36071;48.140;11.516;2023-05-23T23:19:01;5.0;;;3.6;;
50165;SDS011;36071;48.140;11.516;2023-05-23T23:24:00;4.2;;;3.1;;
50165;SDS011;36071;48.140;11.516;2023-05-23T23:29:00;4.3;;;3.4;;
50165;SDS011;36071;48.140;11.516;2023-05-23T23:34:00;4.4;;;3.0;;
50165;SDS011;36071;48.140;11.516;2023-05-23T23:39:00;4.4;;;3.1;;
50165;SDS011;36071;48.140;11.516;2023-05-23T23:44:00;3.5;;;2.9;;
50165;SDS011;36071;48.140;11.516;2023-05-23T23:49:00;4.3;;;2.8;;
50165;SDS011;36071;48.140;11.516;2023-05-23T23:54:01;4.2;;;3.3;;
50165;SDS011;36071;48.140;11.516;2023-05-23T23:59:00;4.3;;;2.8;;
